Time;durP1;ratioP1;P1;durP2;ratioP2;P2;SDS_P1;SDS_P2;PMS_P1;PMS_P2;Temp;Humidity;BMP_temperature;BMP_pressure;BME280_temperature;BME280_humidity;BME280_pressure;Samples;Min_cycle;Max_cycle;Signal;HPM_P1;HPM_P2
2023/04/04 00:00:57;;;;;;;10.03;5.20;;;;;;;8.03;75.47;101325.39;1888047;74;21068;-52
2023/04/04 00:03:26;;;;;;;11.35;5.28;;;;;;;8.00;75.48;101325.44;1873957;75;21538;-56
2023/04/04 00:05:55;;;;;;;9.63;4.65;;;;;;;7.98;75.48;101319.36;1870002;76;21024;-50
2023/04/04 00:08:24;;;;;;;12.20;4.85;;;;;;;7.96;75.58;101312.42;1871446;76;21714;-48
2023/04/04 00:10:58;;;;;;;8.50;4.20;;;;;;;7.91;75.66;101308.14;1871134;75;21170;-52
2023/04/04 00:13:27;;;;;;;9.93;4.92;;;;;;;7.88;75.70;101306.88;1872307;76;21138;-53
2023/04/04 00:15:56;;;;;;;11.75;4.87;;;;;;;7.86;75.57;101309.13;1872138;76;22407;-50
2023/04/04 00:18:25;;;;;;;12.68;5.00;;;;;;;7.84;75.51;101295.14;1871788;75;21016;-55
2023/04/04 00:20:53;;;;;;;13.45;4.87;;;;;;;7.82;75.50;101302.18;1871713;76;21087;-53
2023/04/04 00:23:22;;;;;;;16.77;5.72;;;;;;;7.81;75.58;101304.41;1871200;76;21091;-51
2023/04/04 00:25:54;;;;;;;18.37;5.05;;;;;;;7.78;75.65;101304.45;1871634;75;21135;-53
2023/04/04 00:28:23;;;;;;;10.40;4.50;;;;;;;7.76;75.72;101306.23;1871038;76;21071;-52
2023/04/04 00:30:52;;;;;;;9.83;3.67;;;;;;;7.75;75.67;101306.69;1870943;75;21497;-51
2023/04/04 00:33:20;;;;;;;11.68;4.85;;;;;;;7.75;75.59;101308.00;1871279;76;20996;-50
2023/04/04 00:35:49;;;;;;;11.22;4.28;;;;;;;7.72;75.57;101303.66;1871748;75;21047;-55
2023/04/04 00:38:18;;;;;;;14.05;4.05;;;;;;;7.68;75.45;101300.69;1872085;76;21232;-47
2023/04/04 00:40:49;;;;;;;9.35;4.45;;;;;;;7.65;75.34;101308.59;1871450;75;21613;-48
2023/04/04 00:43:19;;;;;;;9.50;4.37;;;;;;;7.60;75.28;101303.91;1871025;76;21171;-49
2023/04/04 00:45:48;;;;;;;6.25;3.60;;;;;;;7.52;75.16;101304.47;1871081;76;21802;-54
2023/04/04 00:48:16;;;;;;;7.12;3.85;;;;;;;7.45;75.21;101305.45;1871859;76;21162;-49
2023/04/04 00:50:45;;;;;;;4.85;2.60;;;;;;;7.38;75.18;101301.20;1868049;77;21032;-46
2023/04/04 00:53:14;;;;;;;5.70;2.72;;;;;;;7.32;75.13;101303.06;1871066;76;21106;-49
2023/04/04 00:55:42;;;;;;;6.45;3.00;;;;;;;7.30;75.16;101303.96;1871214;76;21134;-50
2023/04/04 00:58:11;;;;;;;6.03;3.37;;;;;;;7.27;75.15;101307.96;1870756;75;21236;-49
2023/04/04 01:00:40;;;;;;;5.80;3.35;;;;;;;7.22;75.37;101309.33;1871492;76;21416;-49
2023/04/04 01:03:11;;;;;;;6.60;3.27;;;;;;;7.17;75.52;101311.15;1871542;76;22006;-49
2023/04/04 01:05:41;;;;;;;5.95;2.95;;;;;;;7.17;75.59;101312.45;1871384;75;21024;-49
2023/04/04 01:08:10;;;;;;;7.17;3.25;;;;;;;7.15;75.69;101307.69;1871758;76;21079;-51
2023/04/04 01:10:41;;;;;;;6.90;4.47;;;;;;;7.12;75.79;101311.23;1871615;76;21550;-55
2023/04/04 01:13:10;;;;;;;10.48;3.40;;;;;;;7.10;75.87;101299.03;1871051;76;21223;-57
2023/04/04 01:15:41;;;;;;;8.23;3.10;;;;;;;7.08;75.85;101295.58;1871006;76;21141;-48
2023/04/04 01:18:11;;;;;;;9.58;3.45;;;;;;;7.03;75.70;101294.81;1871698;76;21083;-50
2023/04/04 01:20:46;;;;;;;5.78;3.12;;;;;;;6.97;75.61;101303.59;1871328;76;21067;-52
2023/04/04 01:23:15;;;;;;;8.20;3.33;;;;;;;6.91;75.72;101295.39;1870620;76;21214;-49
2023/04/04 01:25:47;;;;;;;6.67;3.25;;;;;;;6.89;75.59;101291.08;1875682;75;21123;-57
2023/04/04 01:28:17;;;;;;;4.97;3.40;;;;;;;6.87;75.50;101297.64;1870589;77;21092;-56
2023/04/04 01:30:46;;;;;;;7.92;3.95;;;;;;;6.83;75.45;101294.66;1871072;76;21641;-50
2023/04/04 01:33:20;;;;;;;9.38;3.45;;;;;;;6.76;75.67;101296.94;1871800;76;21190;-49
2023/04/04 01:36:01;;;;;;;8.55;3.65;;;;;;;6.72;75.79;101300.49;1871377;76;21103;-51
2023/04/04 01:38:42;;;;;;;16.12;3.77;;;;;;;6.68;75.92;101292.27;1871244;76;21131;-50
2023/04/04 01:41:12;;;;;;;10.18;2.70;;;;;;;6.66;75.95;101292.70;1869923;76;21686;-50
2023/04/04 01:43:50;;;;;;;7.15;3.45;;;;;;;6.62;76.00;101289.72;1870661;76;21078;-50
2023/04/04 01:46:17;;;;;;;7.72;4.03;;;;;;;6.60;76.00;101296.73;1869997;76;21045;-47
2023/04/04 01:48:47;;;;;;;4.70;3.08;;;;;;;6.58;75.96;101291.51;1871906;75;21171;-50
2023/04/04 01:51:18;;;;;;;10.58;4.08;;;;;;;6.57;75.87;101294.58;1871021;76;21466;-49
2023/04/04 01:53:46;;;;;;;17.35;4.55;;;;;;;6.55;75.79;101291.12;1871263;77;21197;-52
2023/04/04 01:56:15;;;;;;;10.05;4.22;;;;;;;6.54;75.87;101291.13;1870713;75;21031;-53
2023/04/04 01:58:43;;;;;;;10.60;4.97;;;;;;;6.53;75.77;101295.97;1871361;76;21155;-54
2023/04/04 02:01:13;;;;;;;11.22;4.12;;;;;;;6.50;75.88;101294.23;1872596;75;21016;-55
2023/04/04 02:03:42;;;;;;;8.38;4.15;;;;;;;6.50;75.92;101294.23;1879651;76;21566;-53
2023/04/04 02:06:10;;;;;;;14.03;4.42;;;;;;;6.50;75.90;101292.92;1881696;76;21525;-53
2023/04/04 02:08:40;;;;;;;8.18;4.00;;;;;;;6.51;75.71;101292.47;1879625;76;21066;-53
2023/04/04 02:11:11;;;;;;;7.92;3.35;;;;;;;6.50;75.53;101290.31;1879745;76;21603;-53
2023/04/04 02:13:40;;;;;;;10.13;3.80;;;;;;;6.46;75.52;101286.01;1881965;76;21587;-53
2023/04/04 02:16:09;;;;;;;8.35;3.77;;;;;;;6.42;75.63;101283.02;1880015;75;21169;-53
2023/04/04 02:18:38;;;;;;;6.00;3.20;;;;;;;6.42;75.65;101284.33;1879651;76;21067;-48
2023/04/04 02:21:06;;;;;;;11.95;3.95;;;;;;;6.43;75.53;101286.04;1874034;76;21027;-49
2023/04/04 02:23:35;;;;;;;12.37;3.85;;;;;;;6.44;75.48;101287.78;1879875;76;21043;-47
2023/04/04 02:26:04;;;;;;;9.10;4.37;;;;;;;6.42;75.61;101288.25;1881542;76;21100;-54
2023/04/04 02:28:33;;;;;;;7.85;3.72;;;;;;;6.42;75.64;101291.28;1882803;76;21101;-52
2023/04/04 02:31:02;;;;;;;9.08;3.90;;;;;;;6.43;75.51;101299.57;1882770;76;21019;-50
2023/04/04 02:33:31;;;;;;;9.75;4.60;;;;;;;6.42;75.42;101301.75;1882947;75;21567;-52
2023/04/04 02:36:01;;;;;;;11.73;4.83;;;;;;;6.40;75.44;101297.87;1879852;76;21085;-52
2023/04/04 02:38:30;;;;;;;6.85;3.80;;;;;;;6.40;75.58;101297.87;1880936;76;21109;-52
2023/04/04 02:41:00;;;;;;;13.03;4.95;;;;;;;6.40;75.50;101299.18;1882812;76;21614;-51
2023/04/04 02:43:28;;;;;;;11.48;5.65;;;;;;;6.37;75.48;101299.20;1882857;75;21030;-56
2023/04/04 02:45:58;;;;;;;16.07;6.87;;;;;;;6.34;75.54;101296.62;1882731;75;21634;-53
2023/04/04 02:48:28;;;;;;;16.93;6.58;;;;;;;6.33;75.67;101297.52;1882469;76;21108;-48
2023/04/04 02:50:58;;;;;;;13.65;6.05;;;;;;;6.34;75.66;101300.12;1882403;76;21501;-52
2023/04/04 02:53:27;;;;;;;11.78;5.25;;;;;;;6.35;75.57;101297.06;1882917;76;21498;-51
2023/04/04 02:55:57;;;;;;;14.15;6.33;;;;;;;6.34;75.47;101297.52;1882718;75;21050;-48
2023/04/04 02:58:26;;;;;;;14.10;6.03;;;;;;;6.36;75.62;101305.31;1882544;76;21457;-53
2023/04/04 03:00:55;;;;;;;14.60;5.47;;;;;;;6.34;75.55;101304.47;1880642;76;21537;-53
2023/04/04 03:03:26;;;;;;;18.50;5.65;;;;;;;6.33;75.51;101309.30;1877032;75;21510;-53
2023/04/04 03:05:55;;;;;;;21.20;6.17;;;;;;;6.31;75.52;101306.69;1872849;75;21036;-53
2023/04/04 03:08:23;;;;;;;14.87;5.55;;;;;;;6.30;75.73;101321.09;1872514;76;21114;-53
2023/04/04 03:10:52;;;;;;;8.23;3.95;;;;;;;6.27;75.66;101321.12;1872526;77;21023;-53
2023/04/04 03:13:21;;;;;;;8.95;3.95;;;;;;;6.24;75.89;101322.48;1872642;76;21080;-53
2023/04/04 03:15:50;;;;;;;11.30;4.50;;;;;;;6.21;75.95;101324.67;1877326;76;21485;-54
2023/04/04 03:18:18;;;;;;;10.95;5.12;;;;;;;6.21;76.13;101322.51;1878946;76;21477;-55
2023/04/04 03:20:47;;;;;;;11.88;5.10;;;;;;;6.22;76.26;101320.33;1872692;77;21102;-55
2023/04/04 03:23:17;;;;;;;16.30;5.80;;;;;;;6.23;76.28;101324.66;1872613;76;21576;-49
2023/04/04 03:25:45;;;;;;;17.57;5.87;;;;;;;6.23;76.77;101319.42;1872699;76;21032;-51
2023/04/04 03:28:14;;;;;;;11.03;4.72;;;;;;;6.25;76.88;101320.27;1872763;76;21032;-47
2023/04/04 03:30:43;;;;;;;5.92;3.62;;;;;;;6.28;77.12;101319.80;1872610;76;21482;-49
2023/04/04 03:33:12;;;;;;;14.85;5.05;;;;;;;6.33;76.98;101332.83;1872771;77;21451;-48
2023/04/04 03:35:41;;;;;;;13.10;5.42;;;;;;;6.40;76.80;101335.80;1872517;76;21059;-50
2023/04/04 03:38:10;;;;;;;10.20;5.75;;;;;;;6.48;76.65;101339.17;1872750;76;21548;-51
2023/04/04 03:40:40;;;;;;;13.48;6.08;;;;;;;6.55;76.67;101337.36;1874647;76;21102;-53
2023/04/04 03:43:11;;;;;;;15.30;5.60;;;;;;;6.65;76.71;101332.86;1872346;76;21121;-46
2023/04/04 03:45:40;;;;;;;19.15;5.87;;;;;;;6.75;76.68;101334.45;1872639;76;21527;-48
2023/04/04 03:48:10;;;;;;;11.50;5.40;;;;;;;6.87;76.57;101336.91;1849580;77;21118;-51
2023/04/04 03:50:39;;;;;;;12.75;5.33;;;;;;;7.00;76.45;101334.13;1872532;76;21135;-49
2023/04/04 03:53:08;;;;;;;35.28;16.40;;;;;;;7.11;76.26;101342.23;1872707;76;21121;-50
2023/04/04 03:55:38;;;;;;;73.95;30.20;;;;;;;7.21;76.07;101344.28;1872703;77;21068;-51
2023/04/04 03:58:07;;;;;;;68.07;30.15;;;;;;;7.31;75.92;101343.23;1872641;77;21024;-49
2023/04/04 04:00:35;;;;;;;65.80;25.62;;;;;;;7.43;75.80;101337.38;1872586;77;21012;-51
2023/04/04 04:03:04;;;;;;;61.10;27.90;;;;;;;7.54;75.64;101339.37;1872532;75;21131;-48
2023/04/04 04:05:33;;;;;;;58.45;28.05;;;;;;;7.63;75.47;101334.42;1874280;74;21063;-51
2023/04/04 04:08:01;;;;;;;52.95;22.10;;;;;;;7.74;75.29;101335.09;1872739;75;21114;-51
2023/04/04 04:10:30;;;;;;;40.92;20.32;;;;;;;7.87;75.23;101331.35;1872788;76;21443;-48
2023/04/04 04:13:00;;;;;;;44.65;21.23;;;;;;;8.06;75.26;101327.96;1872816;75;21024;-52
2023/04/04 04:15:29;;;;;;;36.20;19.90;;;;;;;8.29;75.24;101321.39;1872553;76;21540;-51
2023/04/04 04:17:59;;;;;;;31.12;17.07;;;;;;;8.50;75.21;101318.36;1872999;76;21098;-50
2023/04/04 04:20:28;;;;;;;39.30;22.07;;;;;;;8.69;75.01;101320.59;1872740;76;21133;-48
2023/04/04 04:22:58;;;;;;;38.58;22.40;;;;;;;8.88;74.76;101315.33;1872680;76;21047;-47
2023/04/04 04:25:26;;;;;;;37.90;23.30;;;;;;;9.15;74.60;101311.66;1872726;76;20992;-46
2023/04/04 04:27:59;;;;;;;36.55;25.05;;;;;;;9.40;74.27;101311.90;1872296;76;21040;-49
2023/04/04 04:30:28;;;;;;;34.53;24.60;;;;;;;9.66;74.02;101306.00;1872739;76;21083;-46
2023/04/04 04:32:57;;;;;;;39.40;24.30;;;;;;;9.94;74.00;101309.20;1872692;75;21125;-46
2023/04/04 04:35:27;;;;;;;29.23;18.65;;;;;;;10.29;73.90;101307.36;1872444;76;21072;-47
2023/04/04 04:37:57;;;;;;;30.20;16.37;;;;;;;10.51;73.62;101300.16;1880491;76;21473;-48
2023/04/04 04:40:25;;;;;;;26.35;15.40;;;;;;;10.67;73.51;101296.16;1872578;77;21024;-50
2023/04/04 04:42:56;;;;;;;21.50;13.00;;;;;;;10.82;73.20;101297.45;1872389;76;21055;-45
2023/04/04 04:45:25;;;;;;;26.48;16.50;;;;;;;11.01;72.89;101305.20;1872609;76;21028;-45
2023/04/04 04:47:55;;;;;;;25.82;12.65;;;;;;;11.26;72.80;101304.86;1872939;76;21117;-45
2023/04/04 04:50:24;;;;;;;21.55;10.48;;;;;;;11.57;72.85;101298.95;1882183;76;21014;-49
2023/04/04 04:52:53;;;;;;;28.60;8.25;;;;;;;11.85;72.77;101295.83;1873311;75;21067;-50
2023/04/04 04:55:21;;;;;;;12.28;5.80;;;;;;;12.11;72.58;101285.67;1872575;77;21032;-48
2023/04/04 04:57:52;;;;;;;10.93;3.92;;;;;;;12.25;71.96;101282.07;1871787;76;21498;-48
2023/04/04 05:00:22;;;;;;;8.30;3.67;;;;;;;12.42;71.35;101285.86;1872349;76;21044;-49
2023/04/04 05:02:53;;;;;;;9.38;3.37;;;;;;;12.56;70.32;101288.84;1858108;77;21439;-51
2023/04/04 05:05:23;;;;;;;5.37;3.10;;;;;;;12.77;69.51;101284.48;1848328;77;21098;-52
2023/04/04 05:07:53;;;;;;;15.48;3.65;;;;;;;13.12;69.34;101274.27;1883167;76;21154;-57
2023/04/04 05:10:22;;;;;;;8.08;3.33;;;;;;;13.44;69.14;101272.95;1891459;75;21112;-55
2023/04/04 05:12:50;;;;;;;9.08;4.08;;;;;;;13.66;68.12;101261.45;1888948;76;21113;-52
2023/04/04 05:15:21;;;;;;;10.28;4.00;;;;;;;13.83;67.09;101265.55;1891032;75;21118;-49
2023/04/04 05:17:51;;;;;;;5.53;2.42;;;;;;;14.03;66.29;101263.78;1891187;74;21047;-49
2023/04/04 05:20:20;;;;;;;8.83;3.00;;;;;;;14.20;65.46;101255.95;1891427;76;21015;-48
2023/04/04 05:22:49;;;;;;;8.25;3.50;;;;;;;14.39;64.89;101258.59;1891298;76;21115;-48
2023/04/04 05:25:20;;;;;;;11.83;3.85;;;;;;;14.62;64.28;101260.17;1891179;75;21136;-49
2023/04/04 05:27:49;;;;;;;5.65;3.12;;;;;;;14.82;63.61;101255.25;1891377;75;21023;-49
2023/04/04 05:30:19;;;;;;;7.50;3.02;;;;;;;14.99;62.01;101254.41;1891070;75;21099;-51
2023/04/04 05:32:52;;;;;;;10.23;3.87;;;;;;;15.21;61.80;101256.01;1889181;74;21177;-53
2023/04/04 05:35:22;;;;;;;5.60;2.63;;;;;;;15.51;61.99;101251.39;1891109;75;21070;-51
2023/04/04 05:37:51;;;;;;;7.65;2.42;;;;;;;15.83;61.21;101252.42;1891372;74;21035;-51
2023/04/04 05:40:19;;;;;;;7.85;3.60;;;;;;;16.02;59.98;101249.63;1891420;75;21003;-52
2023/04/04 05:42:57;;;;;;;6.75;3.95;;;;;;;16.20;58.91;101247.30;1890966;75;21153;-48
2023/04/04 05:45:27;;;;;;;11.15;3.67;;;;;;;16.49;58.72;101250.17;1876688;76;21553;-48
2023/04/04 05:47:56;;;;;;;3.85;2.87;;;;;;;16.83;57.87;101248.28;1884018;76;21129;-51
2023/04/04 05:50:25;;;;;;;5.67;2.12;;;;;;;17.15;56.70;101241.56;1891227;76;21493;-48
2023/04/04 05:52:56;;;;;;;2.80;1.82;;;;;;;17.27;55.31;101239.52;1890860;75;21042;-48
2023/04/04 05:55:25;;;;;;;6.65;3.00;;;;;;;17.18;54.10;101229.42;1891144;75;21219;-48
2023/04/04 05:57:56;;;;;;;9.30;3.33;;;;;;;16.98;54.29;101233.24;1891463;76;21035;-47
2023/04/04 06:00:26;;;;;;;5.12;2.60;;;;;;;16.58;53.23;101229.72;1890137;75;21592;-46
2023/04/04 06:02:58;;;;;;;8.63;4.37;;;;;;;16.31;53.61;101232.11;1890620;75;21119;-46
2023/04/04 06:05:27;;;;;;;6.72;2.65;;;;;;;16.33;54.17;101221.40;1891496;75;21047;-49
2023/04/04 06:07:55;;;;;;;62.73;25.40;;;;;;;16.31;53.75;101225.94;1885502;76;21133;-56
2023/04/04 06:10:24;;;;;;;217.43;95.05;;;;;;;16.37;54.09;101224.27;1841508;78;21164;-48
2023/04/04 06:12:54;;;;;;;185.20;89.75;;;;;;;16.52;54.14;101226.05;1869798;77;21559;-49
2023/04/04 06:15:23;;;;;;;141.15;56.23;;;;;;;16.97;54.03;101225.74;1872604;77;21316;-48
2023/04/04 06:17:52;;;;;;;15.70;8.20;;;;;;;17.40;53.56;101214.84;1874288;76;20992;-53
2023/04/04 06:20:22;;;;;;;30.40;13.58;;;;;;;17.68;52.84;101209.53;1872449;77;21094;-51
2023/04/04 06:22:52;;;;;;;152.78;50.92;;;;;;;17.96;51.91;101218.51;1872585;77;21024;-53
2023/04/04 06:25:23;;;;;;;64.90;23.80;;;;;;;18.31;51.47;101214.97;1841570;78;21035;-50
2023/04/04 06:27:53;;;;;;;37.78;12.63;;;;;;;18.83;51.60;101216.53;1860645;77;21043;-46
2023/04/04 06:30:25;;;;;;;9.23;4.90;;;;;;;19.44;51.27;101207.52;1872726;76;21024;-54
2023/04/04 06:32:54;;;;;;;4.58;2.35;;;;;;;19.83;50.31;101205.27;1867892;77;21083;-46
2023/04/04 06:35:25;;;;;;;30.25;9.85;;;;;;;20.13;49.43;101197.84;1872231;76;21200;-48
2023/04/04 06:37:58;;;;;;;16.90;6.83;;;;;;;20.10;46.69;101198.06;1871964;76;21036;-50
2023/04/04 06:40:27;;;;;;;12.85;5.15;;;;;;;20.20;46.07;101191.94;1872691;77;21071;-48
2023/04/04 06:42:57;;;;;;;6.87;2.50;;;;;;;20.28;45.74;101190.05;1872724;75;21503;-48
2023/04/04 06:45:28;;;;;;;11.95;5.12;;;;;;;20.38;45.23;101187.54;1871997;76;21581;-48
2023/04/04 06:47:57;;;;;;;4.95;2.55;;;;;;;20.59;45.39;101180.61;1872785;77;21479;-46
2023/04/04 06:50:26;;;;;;;2.72;2.05;;;;;;;20.85;45.03;101181.02;1872646;77;21104;-50
2023/04/04 06:52:56;;;;;;;3.55;1.67;;;;;;;20.98;44.94;101174.59;1872620;76;21083;-49
2023/04/04 06:55:26;;;;;;;4.72;1.77;;;;;;;21.25;44.65;101170.79;1872479;76;21530;-50
2023/04/04 06:57:55;;;;;;;3.40;2.05;;;;;;;21.38;43.70;101164.00;1872610;77;21024;-49
2023/04/04 07:00:24;;;;;;;5.33;2.17;;;;;;;21.27;42.97;101167.50;1872213;76;21150;-49
2023/04/04 07:02:59;;;;;;;9.35;3.62;;;;;;;21.43;43.30;101171.16;1871193;77;21039;-47
2023/04/04 07:05:30;;;;;;;24.23;10.20;;;;;;;21.70;42.81;101161.97;1872813;76;21558;-47
2023/04/04 07:07:59;;;;;;;5.42;2.47;;;;;;;21.85;41.89;101157.22;1873725;76;21023;-51
2023/04/04 07:10:28;;;;;;;4.42;2.70;;;;;;;22.13;41.59;101150.46;1891349;76;21036;-46
2023/04/04 07:12:56;;;;;;;7.12;3.08;;;;;;;22.58;41.37;101153.06;1891458;75;21462;-43
2023/04/04 07:15:25;;;;;;;5.40;2.83;;;;;;;22.92;41.40;101153.74;1891453;74;21109;-47
2023/04/04 07:17:54;;;;;;;5.12;2.27;;;;;;;22.92;40.40;101145.69;1891611;75;21546;-53
2023/04/04 07:20:23;;;;;;;5.00;2.52;;;;;;;23.18;40.27;101135.08;1891498;76;20995;-54
2023/04/04 07:22:51;;;;;;;4.37;2.60;;;;;;;23.42;40.06;101134.28;1890490;76;20992;-54
2023/04/04 07:25:20;;;;;;;8.25;2.85;;;;;;;23.77;39.46;101130.33;1891509;76;21156;-54
2023/04/04 07:27:49;;;;;;;5.58;2.15;;;;;;;23.58;38.19;101134.31;1891592;76;21145;-51
2023/04/04 07:30:18;;;;;;;6.33;2.65;;;;;;;23.71;38.29;101122.82;1891479;76;21039;-52
2023/04/04 07:32:46;;;;;;;7.17;2.15;;;;;;;24.11;38.33;101124.67;1891302;76;21055;-54
2023/04/04 07:35:15;;;;;;;4.05;2.12;;;;;;;24.44;37.80;101123.43;1859849;77;21051;-53
2023/04/04 07:37:44;;;;;;;6.40;1.90;;;;;;;24.64;37.69;101120.75;1859598;77;21204;-51
2023/04/04 07:40:13;;;;;;;6.75;2.98;;;;;;;24.85;37.31;101115.23;1885838;76;21054;-54
2023/04/04 07:42:46;;;;;;;4.55;2.72;;;;;;;25.03;37.11;101115.34;1859774;77;21091;-48
2023/04/04 07:45:14;;;;;;;5.50;2.55;;;;;;;25.16;36.50;101116.38;1872340;76;21470;-51
2023/04/04 07:47:46;;;;;;;5.75;2.25;;;;;;;25.26;36.70;101113.17;1891383;75;21113;-49
2023/04/04 07:50:16;;;;;;;8.88;1.95;;;;;;;25.22;36.42;101109.89;1891501;75;21114;-48
2023/04/04 07:52:48;;;;;;;4.67;2.40;;;;;;;24.65;36.67;101106.31;1891496;76;21494;-49
2023/04/04 07:55:18;;;;;;;3.58;1.95;;;;;;;23.86;36.40;101109.88;1891199;75;21117;-47
2023/04/04 07:57:47;;;;;;;6.92;2.25;;;;;;;23.91;36.56;101108.14;1873214;76;21035;-52
2023/04/04 08:00:20;;;;;;;7.10;2.12;;;;;;;24.21;36.52;101106.69;1859766;77;21112;-47
2023/04/04 08:02:46;;;;;;;5.97;3.67;;;;;;;24.59;36.27;101110.42;1859662;77;21109;-47
2023/04/04 08:05:15;;;;;;;9.70;3.10;;;;;;;25.11;36.47;101101.14;1859779;77;21131;-47
2023/04/04 08:07:43;;;;;;;3.67;2.45;;;;;;;25.24;35.19;101099.84;1859819;76;21535;-49
2023/04/04 08:10:12;;;;;;;18.52;12.85;;;;;;;25.34;34.98;101099.83;1847498;77;21052;-47
2023/04/04 08:12:40;;;;;;;3.80;2.02;;;;;;;25.62;35.01;101100.69;1841603;78;21071;-47
2023/04/04 08:15:10;;;;;;;1.98;1.15;;;;;;;25.93;35.13;101090.98;1841609;78;21122;-50
2023/04/04 08:17:39;;;;;;;6.85;3.60;;;;;;;26.20;34.52;101095.97;1850527;76;21027;-47
2023/04/04 08:20:08;;;;;;;15.80;9.78;;;;;;;26.33;34.32;101088.84;1872578;77;21113;-50
2023/04/04 08:22:37;;;;;;;5.08;2.83;;;;;;;26.40;33.44;101080.47;1872767;77;21121;-50
2023/04/04 08:25:06;;;;;;;4.75;2.30;;;;;;;26.26;33.17;101065.66;1872651;77;21020;-50
2023/04/04 08:27:35;;;;;;;3.47;2.00;;;;;;;26.28;33.25;101059.63;1872598;75;21145;-51
2023/04/04 08:30:04;;;;;;;9.53;3.17;;;;;;;26.57;33.77;101052.59;1872627;77;21114;-49
2023/04/04 08:32:33;;;;;;;3.52;2.35;;;;;;;26.70;32.93;101057.61;1872834;77;21032;-49
2023/04/04 08:35:01;;;;;;;3.45;2.55;;;;;;;26.70;33.00;101051.38;1872730;77;21032;-48
2023/04/04 08:37:30;;;;;;;4.97;3.00;;;;;;;26.44;32.62;101052.66;1872770;77;21520;-48
2023/04/04 08:39:59;;;;;;;5.65;2.52;;;;;;;26.48;32.83;101041.38;1872588;77;21024;-50
2023/04/04 08:42:31;;;;;;;4.85;2.58;;;;;;;26.57;33.05;101032.84;1872779;77;21535;-52
2023/04/04 08:45:02;;;;;;;8.38;2.95;;;;;;;26.26;32.90;101035.96;1872746;77;21036;-50
2023/04/04 08:47:34;;;;;;;4.28;2.65;;;;;;;26.25;33.45;101038.84;1872811;76;21110;-48
2023/04/04 08:50:05;;;;;;;4.67;2.27;;;;;;;26.19;33.46;101034.41;1872845;77;21016;-49
2023/04/04 08:52:35;;;;;;;4.35;2.55;;;;;;;25.87;33.36;101038.09;1872700;77;21040;-50
2023/04/04 08:55:06;;;;;;;4.47;2.15;;;;;;;25.85;33.31;101031.50;1872792;77;21012;-48
2023/04/04 08:57:36;;;;;;;5.97;2.10;;;;;;;26.10;33.60;101021.84;1872658;77;21086;-50
2023/04/04 09:00:06;;;;;;;3.90;2.25;;;;;;;26.28;33.22;101020.48;1872703;77;21619;-52
2023/04/04 09:02:40;;;;;;;5.15;1.95;;;;;;;26.23;33.08;101016.53;1872768;77;21091;-49
2023/04/04 09:05:12;;;;;;;4.92;2.35;;;;;;;26.54;33.37;101012.42;1872600;76;21110;-49
2023/04/04 09:07:42;;;;;;;4.72;2.62;;;;;;;26.79;32.61;101000.96;1872681;77;21044;-49
2023/04/04 09:10:11;;;;;;;3.60;2.08;;;;;;;26.94;32.33;100997.48;1872703;76;21076;-51
2023/04/04 09:12:49;;;;;;;3.83;2.00;;;;;;;26.94;31.88;100988.03;1872778;77;21403;-51
2023/04/04 09:15:18;;;;;;;4.80;2.47;;;;;;;26.67;31.81;100997.18;1872679;77;21039;-48
2023/04/04 09:17:47;;;;;;;7.65;3.08;;;;;;;26.50;32.32;100994.81;1872571;76;21684;-50
2023/04/04 09:20:37;;;;;;;10.70;4.12;;;;;;;26.66;32.44;100981.12;1872668;77;21098;-51
2023/04/04 09:23:08;;;;;;;7.03;3.08;;;;;;;26.89;32.39;100971.95;1872845;76;21091;-50
2023/04/04 09:25:37;;;;;;;7.58;4.28;;;;;;;26.69;32.29;100959.19;1872733;77;21059;-50
2023/04/04 09:28:07;;;;;;;6.25;2.80;;;;;;;26.90;32.69;100963.70;1872606;77;21165;-51
2023/04/04 09:30:37;;;;;;;30.88;15.10;;;;;;;26.46;32.42;100967.80;1872663;77;21161;-51
2023/04/04 09:33:07;;;;;;;8.63;4.28;;;;;;;25.72;33.03;100961.75;1872677;77;21060;-51
2023/04/04 09:35:38;;;;;;;9.33;3.20;;;;;;;25.03;33.52;100963.98;1872795;77;21593;-51
2023/04/04 09:38:07;;;;;;;9.75;3.22;;;;;;;24.35;34.12;100960.13;1872719;76;21040;-52
2023/04/04 09:40:37;;;;;;;12.58;3.95;;;;;;;23.98;34.98;100949.27;1872532;77;21510;-52
2023/04/04 09:43:08;;;;;;;15.78;7.45;;;;;;;23.85;35.39;100957.62;1872787;77;21087;-50
2023/04/04 09:45:43;;;;;;;12.03;4.30;;;;;;;23.79;35.47;100955.00;1872775;77;21036;-48
2023/04/04 09:48:12;;;;;;;3.80;2.40;;;;;;;24.03;35.66;100949.66;1872698;77;21035;-48
2023/04/04 09:50:47;;;;;;;11.10;4.40;;;;;;;24.03;35.55;100942.47;1872662;77;21036;-48
2023/04/04 09:53:20;;;;;;;5.60;2.40;;;;;;;24.08;35.58;100948.75;1872757;77;21122;-51
2023/04/04 09:55:57;;;;;;;10.72;5.42;;;;;;;24.22;35.35;100944.28;1872907;76;21069;-51
2023/04/04 09:58:35;;;;;;;7.58;3.45;;;;;;;24.17;35.51;100941.67;1872739;77;21564;-48
2023/04/04 10:01:01;;;;;;;7.10;2.72;;;;;;;24.22;35.55;100946.13;1871758;76;21052;-51
2023/04/04 10:03:31;;;;;;;8.08;2.83;;;;;;;24.40;35.24;100936.80;1872552;77;21044;-51
2023/04/04 10:06:03;;;;;;;4.20;2.35;;;;;;;24.51;35.32;100932.59;1872751;77;21106;-51
2023/04/04 10:08:32;;;;;;;7.22;2.30;;;;;;;24.44;34.25;100934.19;1872715;77;21631;-48
2023/04/04 10:11:04;;;;;;;5.08;2.08;;;;;;;24.17;34.33;100926.38;1872670;76;21080;-53
2023/04/04 10:13:43;;;;;;;2.05;1.32;;;;;;;24.16;34.62;100922.47;1872816;77;21522;-51
2023/04/04 10:16:11;;;;;;;4.87;2.37;;;;;;;24.01;34.66;100919.38;1872604;77;21008;-49
2023/04/04 10:18:41;;;;;;;6.80;2.25;;;;;;;23.72;34.82;100918.87;1872680;77;21424;-48
2023/04/04 10:21:09;;;;;;;5.17;2.10;;;;;;;23.48;35.05;100926.84;1872767;77;21467;-51
2023/04/04 10:23:39;;;;;;;8.58;3.40;;;;;;;23.37;35.56;100916.22;1872647;77;21028;-50
2023/04/04 10:26:08;;;;;;;5.67;2.52;;;;;;;23.35;35.84;100920.02;1872652;77;21036;-48
2023/04/04 10:28:37;;;;;;;4.28;2.17;;;;;;;23.29;36.18;100918.73;1872508;76;21527;-48
2023/04/04 10:31:27;;;;;;;1.95;1.52;;;;;;;23.17;36.22;100924.73;1872651;77;21098;-48
2023/04/04 10:34:22;;;;;;;9.95;3.75;;;;;;;22.97;36.17;100917.58;1872834;76;21036;-48
2023/04/04 10:36:57;;;;;;;8.63;3.02;;;;;;;22.91;36.56;100906.89;1872634;76;21125;-52
2023/04/04 10:39:41;;;;;;;2.50;1.42;;;;;;;22.84;36.69;100903.04;1872476;76;21190;-48
2023/04/04 10:42:12;;;;;;;3.58;1.80;;;;;;;22.67;36.54;100916.11;1872776;76;21475;-51
2023/04/04 10:44:41;;;;;;;9.65;4.65;;;;;;;22.50;36.80;100905.98;1872743;77;21032;-48
2023/04/04 10:47:20;;;;;;;6.20;2.65;;;;;;;22.43;36.86;100896.76;1872667;77;21040;-50
2023/04/04 10:49:50;;;;;;;4.28;1.75;;;;;;;22.40;37.03;100900.56;1872809;76;21064;-50
2023/04/04 10:52:24;;;;;;;4.30;2.08;;;;;;;22.26;36.97;100893.73;1872854;77;21073;-50
2023/04/04 10:54:59;;;;;;;7.45;2.60;;;;;;;22.14;37.18;100894.73;1872828;77;21036;-49
2023/04/04 10:57:28;;;;;;;4.78;1.67;;;;;;;22.12;37.44;100888.66;1872849;77;21447;-51
2023/04/04 11:00:08;;;;;;;5.42;2.15;;;;;;;22.17;37.56;100879.23;1872616;76;21043;-51
2023/04/04 11:02:53;;;;;;;4.45;2.17;;;;;;;22.14;37.51;100874.63;1871420;76;21017;-49
2023/04/04 11:06:09;;;;;;;3.77;2.00;;;;;;;22.11;37.53;100877.09;1871951;76;21016;-50
2023/04/04 11:08:15;;;;;;;;;;;;;;;22.20;37.68;100872.75;1867330;76;21044;-49
2023/04/04 11:10:45;;;;;;;5.35;1.72;;;;;;;22.23;37.42;100868.47;1873423;75;20150;-50
2023/04/04 11:13:34;;;;;;;5.78;2.17;;;;;;;22.13;37.32;100866.21;1891593;76;21027;-50
2023/04/04 11:16:08;;;;;;;4.20;2.12;;;;;;;22.17;37.55;100863.15;1890158;75;21075;-49
2023/04/04 11:18:44;;;;;;;3.15;2.08;;;;;;;22.22;37.45;100862.73;1891208;75;21055;-51
2023/04/04 11:21:28;;;;;;;4.37;1.32;;;;;;;22.17;37.19;100860.97;1891465;76;21607;-50
2023/04/04 11:24:06;;;;;;;6.62;2.37;;;;;;;22.10;37.26;100861.13;1891164;75;21007;-48
2023/04/04 11:26:36;;;;;;;12.00;2.30;;;;;;;22.02;37.42;100854.22;1888129;75;21117;-50
2023/04/04 11:29:13;;;;;;;10.80;2.02;;;;;;;22.00;37.56;100845.46;1891485;76;21011;-47
2023/04/04 11:31:45;;;;;;;3.58;2.10;;;;;;;21.95;37.54;100842.69;1889829;75;21012;-51
2023/04/04 11:34:16;;;;;;;2.33;1.37;;;;;;;21.93;37.62;100843.78;1891561;76;21114;-49
2023/04/04 11:36:47;;;;;;;4.00;1.75;;;;;;;21.89;37.75;100844.56;1891421;76;21035;-50
2023/04/04 11:39:19;;;;;;;5.72;2.05;;;;;;;21.81;37.74;100840.33;1890545;75;21113;-50